Burnet's Hourly Summary for Thursday, May 10, 2018
Hour Temp
(f)
RH
(%)
Solar Rad.
(MJ/m2)
Rainfall
(in)
Wind
(mph)
5/10/2018 12:00 AM 71 59 0 0 4.73
5/10/2018 1:00 AM 70 65 0 0 5.38
5/10/2018 2:00 AM 67 77 0 0 5.21
5/10/2018 3:00 AM 66 86 0 0 5.34
5/10/2018 4:00 AM 65 89 0 0 4.17
5/10/2018 5:00 AM 65 89 0 0 4.48
5/10/2018 6:00 AM 65 90 0 0 3.89
5/10/2018 7:00 AM 65 90 0.01 0 3.54
5/10/2018 8:00 AM 67 89 0.21 0 4.45
5/10/2018 9:00 AM 69 83 0.42 0 5.09
5/10/2018 10:00 AM 73 74 0.77 0 5.66
5/10/2018 11:00 AM 75 65 1.61 0 6.53
5/10/2018 12:00 PM 78 58 1.88 0 5.48
5/10/2018 1:00 PM 80 48 2.93 0 7.07
5/10/2018 2:00 PM 82 42 3.39 0 6.67
5/10/2018 3:00 PM 83 38 2.35 0 6.99
5/10/2018 4:00 PM 84 35 0.55 0 7.42
5/10/2018 5:00 PM 84 35 2.33 0 7.37
5/10/2018 6:00 PM 84 38 1.02 0 6.93
5/10/2018 7:00 PM 83 43 1.11 0 6.19
5/10/2018 8:00 PM 81 45 0.38 0 4.82
5/10/2018 9:00 PM 78 46 0.01 0 3.34
5/10/2018 10:00 PM 76 50 0 0 2.72
5/10/2018 11:00 PM 75 68 0 0 5.25
Data Summary 74 62 18.97 0.00 5.36